Terminal Aerodrome Forecast
Issued by NWS Grand Junction, CO

Home | Current Version | Previous Version | Text Only | Print | Product List | Glossary On
Versions: 1 2 3 4 5 6 7 8 9 10 11 12 13
000
FTUS45 KGJT 230525
TAFGJT
TAF
KGJT 230525Z 2306/2406 10005KT P6SM FEW250
     FM231200 12009KT P6SM FEW200
     FM231700 19010KT P6SM FEW250
     FM232000 22013G21KT P6SM FEW250
     FM240000 23018G30KT P6SM SCT200
     FM240300 26013KT P6SM SCT110=

USA.gov is the U.S. government's official web portal to all federal, state and local government web resources and services.